FNBG

Benguela Airport

Benguela, Angola
METAR FNBG 171600Z 26008KT 9999 FEW020 27/21 Q1009
Observed Flight Rules
Dec-17 @ 16:00 UTC (11 hours ago) Visual Flight Rules
Wind Visibility Clouds
260° at 8 knots 10,000+ meters
  • Few at 2,000' AGL
Temperatures Readings
Current 27°C / 81°F
Dewpoint 21°C / 70°F
Humidity 70%
Altimeter 29.79" Hg
Pressure 1009 hPa
Elevation 36
METAR FNBG 171600Z 26008KT 9999 FEW020 27/21 Q1009
Observed Flight Rules
Dec-17 @ 16:00 UTC
(11 hours ago)
VFR
Wind Visibility
260° at 8 knots 10,000+ meters
Clouds
  • Few at 2,000' AGL
Temperature Dewpoint
27°C / 81°F 21°C / 70°F
Humidity Altimeter Pressure
70% 29.79" Hg 1009 hPa